Time;durP1;ratioP1;P1;durP2;ratioP2;P2;SDS_P1;SDS_P2;PMS_P1;PMS_P2;Temp;Humidity;BMP_temperature;BMP_pressure;BME280_temperature;BME280_humidity;BME280_pressure;Samples;Min_cycle;Max_cycle;Signal;HPM_P1;HPM_P2
2023/03/04 00:00:33;;;;;;;32.65;15.23;;;;;;;;;;5093263;28;20032;-76
2023/03/04 00:02:58;;;;;;;31.98;15.80;;;;;;;;;;5093572;28;20039;-76
2023/03/04 00:05:24;;;;;;;29.40;14.98;;;;;;;;;;5093215;28;20504;-76
2023/03/04 00:07:49;;;;;;;34.47;16.40;;;;;;;;;;5075689;28;20377;-77
2023/03/04 00:10:14;;;;;;;33.25;16.00;;;;;;;;;;5076674;28;20504;-76
2023/03/04 00:12:40;;;;;;;34.97;15.95;;;;;;;;;;5076400;28;20489;-76
2023/03/04 00:15:06;;;;;;;39.83;17.65;;;;;;;;;;5076066;28;20123;-76
2023/03/04 00:17:31;;;;;;;38.30;15.68;;;;;;;;;;5076144;28;20028;-75
2023/03/04 00:19:57;;;;;;;39.83;17.60;;;;;;;;;;5076203;28;20437;-76
2023/03/04 00:22:22;;;;;;;41.33;17.27;;;;;;;;;;5075713;28;20134;-76
2023/03/04 00:24:48;;;;;;;36.97;16.48;;;;;;;;;;5076008;28;20154;-76
2023/03/04 00:27:13;;;;;;;41.75;16.30;;;;;;;;;;5075993;28;20028;-75
2023/03/04 00:29:39;;;;;;;36.78;15.95;;;;;;;;;;5059132;28;20071;-76
2023/03/04 00:32:04;;;;;;;39.30;16.92;;;;;;;;;;5076001;28;20466;-77
2023/03/04 00:34:29;;;;;;;42.58;17.15;;;;;;;;;;5084058;28;20050;-76
2023/03/04 00:37:00;;;;;;;39.95;17.23;;;;;;;;;;5082803;28;20105;-76
2023/03/04 00:39:26;;;;;;;39.17;16.73;;;;;;;;;;5093850;28;20449;-76
2023/03/04 00:41:52;;;;;;;40.58;16.92;;;;;;;;;;5088961;28;20024;-76
2023/03/04 00:44:17;;;;;;;37.67;16.70;;;;;;;;;;5072311;28;20025;-76
2023/03/04 00:46:43;;;;;;;43.60;17.13;;;;;;;;;;5071650;28;20077;-75
2023/03/04 00:49:08;;;;;;;45.60;18.27;;;;;;;;;;5073377;28;20066;-76
2023/03/04 00:51:34;;;;;;;45.75;17.33;;;;;;;;;;5073926;28;20063;-76
2023/03/04 00:53:59;;;;;;;41.47;18.20;;;;;;;;;;5075537;28;20024;-76
2023/03/04 00:56:24;;;;;;;40.92;18.25;;;;;;;;;;5093523;28;20031;-76
2023/03/04 00:58:50;;;;;;;43.30;19.10;;;;;;;;;;5092385;28;20024;-76
2023/03/04 01:01:15;;;;;;;45.30;19.25;;;;;;;;;;5058950;28;20485;-76
2023/03/04 01:03:41;;;;;;;43.58;17.58;;;;;;;;;;5059032;28;20480;-76
2023/03/04 01:06:07;;;;;;;37.28;16.38;;;;;;;;;;5075378;28;20016;-75
2023/03/04 01:08:32;;;;;;;44.15;18.23;;;;;;;;;;5075588;28;20028;-75
2023/03/04 01:10:58;;;;;;;43.45;18.38;;;;;;;;;;5092422;28;20028;-76
2023/03/04 01:13:24;;;;;;;39.33;17.35;;;;;;;;;;5075604;28;20591;-76
2023/03/04 01:15:49;;;;;;;45.40;18.52;;;;;;;;;;5093446;28;20024;-75
2023/03/04 01:18:14;;;;;;;47.35;18.13;;;;;;;;;;5092496;28;20027;-76
2023/03/04 01:20:40;;;;;;;49.20;19.27;;;;;;;;;;5095627;28;20429;-76
2023/03/04 01:23:05;;;;;;;44.58;18.35;;;;;;;;;;5097341;28;20031;-76
2023/03/04 01:25:31;;;;;;;47.35;18.92;;;;;;;;;;5062935;28;20032;-76
2023/03/04 01:27:56;;;;;;;41.30;19.58;;;;;;;;;;5079042;28;20032;-76
2023/03/04 01:30:22;;;;;;;43.30;19.48;;;;;;;;;;5097214;28;20028;-76
2023/03/04 01:32:48;;;;;;;45.40;19.00;;;;;;;;;;5079153;28;20028;-76
2023/03/04 01:35:13;;;;;;;43.80;18.73;;;;;;;;;;5096874;28;20074;-76
2023/03/04 01:37:38;;;;;;;46.80;19.40;;;;;;;;;;5062513;28;20077;-77
2023/03/04 01:40:04;;;;;;;46.15;19.80;;;;;;;;;;5078481;28;20052;-76
2023/03/04 01:42:32;;;;;;;46.60;19.98;;;;;;;;;;5078372;28;20085;-76
2023/03/04 01:44:57;;;;;;;49.65;20.33;;;;;;;;;;5078450;28;20031;-76
2023/03/04 01:47:23;;;;;;;52.63;20.98;;;;;;;;;;5096695;28;20028;-76
2023/03/04 01:49:52;;;;;;;50.15;20.63;;;;;;;;;;5078351;28;20028;-76
2023/03/04 01:52:17;;;;;;;45.90;19.27;;;;;;;;;;5078720;28;20441;-75
2023/03/04 01:54:43;;;;;;;45.30;20.50;;;;;;;;;;5078669;28;20020;-76
2023/03/04 01:57:18;;;;;;;52.42;21.42;;;;;;;;;;5095469;28;20130;-75
2023/03/04 01:59:44;;;;;;;49.17;19.15;;;;;;;;;;5095530;28;20032;-76
2023/03/04 02:02:10;;;;;;;48.72;19.95;;;;;;;;;;5078885;28;20039;-76
2023/03/04 02:04:35;;;;;;;52.97;21.35;;;;;;;;;;5078136;28;20452;-76
2023/03/04 02:07:01;;;;;;;48.88;20.67;;;;;;;;;;5078522;28;20058;-75
2023/03/04 02:09:27;;;;;;;49.30;20.65;;;;;;;;;;5078683;28;20055;-75
2023/03/04 02:11:52;;;;;;;59.58;21.95;;;;;;;;;;5078319;28;20030;-76
2023/03/04 02:14:18;;;;;;;47.58;20.20;;;;;;;;;;5078414;28;20339;-76
2023/03/04 02:16:43;;;;;;;57.58;20.73;;;;;;;;;;5078250;28;20028;-76
2023/03/04 02:19:23;;;;;;;50.33;21.20;;;;;;;;;;5094808;28;20028;-76
2023/03/04 02:21:49;;;;;;;49.13;20.58;;;;;;;;;;5078340;28;20043;-76
2023/03/04 02:24:22;;;;;;;53.88;20.95;;;;;;;;;;5094989;28;20024;-75
2023/03/04 02:26:47;;;;;;;51.95;20.30;;;;;;;;;;5078602;28;20370;-75
2023/03/04 02:29:14;;;;;;;53.97;20.95;;;;;;;;;;5094854;28;20039;-75
2023/03/04 02:31:44;;;;;;;59.63;21.25;;;;;;;;;;5061310;28;20123;-76
2023/03/04 02:34:20;;;;;;;49.90;20.85;;;;;;;;;;5077640;28;20028;-76
2023/03/04 02:36:46;;;;;;;50.28;21.20;;;;;;;;;;5061166;28;20064;-76
2023/03/04 02:39:27;;;;;;;52.67;21.27;;;;;;;;;;5094792;28;20024;-75
2023/03/04 02:41:53;;;;;;;49.58;20.92;;;;;;;;;;5077735;28;20024;-76
2023/03/04 02:44:23;;;;;;;54.45;20.65;;;;;;;;;;5078019;28;20702;-76
2023/03/04 02:46:49;;;;;;;57.65;21.85;;;;;;;;;;5077273;28;20523;-75
2023/03/04 02:49:15;;;;;;;45.35;19.65;;;;;;;;;;5077532;28;20040;-76
2023/03/04 02:51:40;;;;;;;52.78;21.58;;;;;;;;;;5095035;28;20024;-76
2023/03/04 02:54:20;;;;;;;56.55;21.42;;;;;;;;;;5095665;28;20020;-76
2023/03/04 02:56:46;;;;;;;49.40;20.05;;;;;;;;;;5095628;28;20056;-76
2023/03/04 02:59:12;;;;;;;48.47;20.08;;;;;;;;;;5094456;28;20024;-76
2023/03/04 03:01:37;;;;;;;52.20;19.95;;;;;;;;;;5094028;28;20024;-76
2023/03/04 03:04:03;;;;;;;49.00;20.60;;;;;;;;;;5094322;28;20024;-75
2023/03/04 03:06:28;;;;;;;51.83;20.65;;;;;;;;;;5095241;28;20130;-77
2023/03/04 03:08:54;;;;;;;49.95;21.58;;;;;;;;;;5077222;28;20449;-76
2023/03/04 03:11:19;;;;;;;53.17;21.92;;;;;;;;;;5094086;28;20024;-76
2023/03/04 03:13:44;;;;;;;53.00;21.98;;;;;;;;;;5077040;28;20035;-75
2023/03/04 03:16:10;;;;;;;60.70;23.35;;;;;;;;;;5077038;28;20028;-76
2023/03/04 03:18:35;;;;;;;68.53;22.90;;;;;;;;;;5077092;28;20028;-76
2023/03/04 03:21:01;;;;;;;60.28;22.20;;;;;;;;;;5095117;28;20020;-76
2023/03/04 03:23:26;;;;;;;56.15;21.67;;;;;;;;;;5094969;28;20035;-76
2023/03/04 03:25:52;;;;;;;67.13;23.15;;;;;;;;;;5093787;28;20024;-76
2023/03/04 03:28:17;;;;;;;64.72;23.30;;;;;;;;;;5094889;28;20054;-76
2023/03/04 03:30:42;;;;;;;54.75;22.65;;;;;;;;;;5094636;28;20428;-76
2023/03/04 03:33:08;;;;;;;60.05;23.30;;;;;;;;;;5076637;28;20028;-76
2023/03/04 03:35:33;;;;;;;62.15;22.90;;;;;;;;;;5094026;28;20458;-77
2023/03/04 03:37:59;;;;;;;57.05;23.33;;;;;;;;;;5076953;28;20028;-76
2023/03/04 03:40:24;;;;;;;64.35;24.38;;;;;;;;;;5094587;28;20491;-76
2023/03/04 03:42:50;;;;;;;54.75;22.77;;;;;;;;;;5092348;28;20055;-75
2023/03/04 03:45:15;;;;;;;63.97;23.35;;;;;;;;;;5083546;28;20058;-76
2023/03/04 03:47:41;;;;;;;58.70;22.58;;;;;;;;;;5074433;28;20032;-76
2023/03/04 03:50:06;;;;;;;58.97;22.25;;;;;;;;;;5089960;28;20036;-76
2023/03/04 03:52:32;;;;;;;53.55;22.98;;;;;;;;;;5056177;28;20382;-75
2023/03/04 03:55:00;;;;;;;56.28;22.25;;;;;;;;;;5090059;28;20032;-76
2023/03/04 03:57:26;;;;;;;61.22;23.65;;;;;;;;;;5073265;28;20358;-75
2023/03/04 03:59:51;;;;;;;65.28;23.27;;;;;;;;;;5072681;28;20035;-76
2023/03/04 04:02:17;;;;;;;69.38;24.13;;;;;;;;;;5074864;28;20028;-76
2023/03/04 04:04:42;;;;;;;65.07;24.20;;;;;;;;;;5089778;28;20039;-75
2023/03/04 04:07:08;;;;;;;65.68;26.83;;;;;;;;;;5074073;28;20047;-75
2023/03/04 04:09:33;;;;;;;61.85;25.92;;;;;;;;;;5072820;28;20436;-76
2023/03/04 04:11:59;;;;;;;64.35;25.08;;;;;;;;;;5073134;28;20028;-76
2023/03/04 04:14:24;;;;;;;66.63;24.75;;;;;;;;;;5074012;28;20439;-76
2023/03/04 04:16:49;;;;;;;63.60;24.75;;;;;;;;;;5074055;28;20107;-75
2023/03/04 04:19:16;;;;;;;67.93;24.35;;;;;;;;;;5073978;28;20024;-75
2023/03/04 04:21:42;;;;;;;70.53;26.92;;;;;;;;;;5072751;28;20024;-75
2023/03/04 04:24:07;;;;;;;64.57;28.58;;;;;;;;;;5073922;28;20424;-75
2023/03/04 04:26:33;;;;;;;72.40;28.40;;;;;;;;;;5072594;28;20029;-75
2023/03/04 04:28:58;;;;;;;68.65;27.80;;;;;;;;;;5073824;28;20036;-75
2023/03/04 04:31:23;;;;;;;66.30;25.35;;;;;;;;;;5073867;28;20025;-75
2023/03/04 04:33:49;;;;;;;74.43;27.15;;;;;;;;;;5072584;28;20016;-76
2023/03/04 04:36:15;;;;;;;73.35;26.08;;;;;;;;;;5089273;28;20036;-76
2023/03/04 04:38:40;;;;;;;71.13;25.48;;;;;;;;;;5072443;28;20028;-75
2023/03/04 04:41:28;;;;;;;74.82;27.20;;;;;;;;;;5073678;28;20017;-75
2023/03/04 04:43:53;;;;;;;75.53;28.98;;;;;;;;;;5080572;28;20047;-76
2023/03/04 04:46:19;;;;;;;79.40;27.67;;;;;;;;;;5074640;28;20028;-75
2023/03/04 04:48:44;;;;;;;76.68;27.52;;;;;;;;;;5075681;28;20036;-76
2023/03/04 04:51:10;;;;;;;89.93;32.30;;;;;;;;;;5075723;28;20028;-75
2023/03/04 04:53:36;;;;;;;90.20;31.27;;;;;;;;;;5059201;28;20349;-75
2023/03/04 04:56:14;;;;;;;89.30;32.53;;;;;;;;;;5079269;28;20205;-76
2023/03/04 04:58:39;;;;;;;87.63;31.20;;;;;;;;;;5096590;28;20031;-75
2023/03/04 05:01:05;;;;;;;86.63;30.42;;;;;;;;;;5079945;28;20063;-76
2023/03/04 05:03:32;;;;;;;83.18;31.27;;;;;;;;;;5097839;28;20024;-76
2023/03/04 05:05:57;;;;;;;77.90;29.25;;;;;;;;;;5063474;28;20054;-76
2023/03/04 05:08:23;;;;;;;74.75;28.98;;;;;;;;;;5097889;28;20036;-77
2023/03/04 05:10:49;;;;;;;81.47;30.08;;;;;;;;;;5063343;28;20039;-76
2023/03/04 05:13:14;;;;;;;83.03;30.08;;;;;;;;;;5079319;28;20071;-75
2023/03/04 05:15:39;;;;;;;87.65;35.00;;;;;;;;;;5097727;28;20058;-76
2023/03/04 05:18:05;;;;;;;95.35;36.33;;;;;;;;;;5079692;28;20028;-75
2023/03/04 05:20:31;;;;;;;85.97;32.53;;;;;;;;;;5097585;28;20077;-75
2023/03/04 05:22:56;;;;;;;72.25;29.23;;;;;;;;;;5097605;28;20028;-75
2023/03/04 05:25:22;;;;;;;74.43;29.85;;;;;;;;;;5097821;28;20235;-75
2023/03/04 05:27:47;;;;;;;68.45;27.92;;;;;;;;;;5097370;28;20416;-76
2023/03/04 05:30:13;;;;;;;72.95;26.95;;;;;;;;;;5062694;28;20040;-76
2023/03/04 05:32:38;;;;;;;62.97;26.50;;;;;;;;;;5079389;28;20449;-76
2023/03/04 05:35:04;;;;;;;67.60;26.50;;;;;;;;;;5097188;28;20036;-75
2023/03/04 05:37:30;;;;;;;75.13;27.38;;;;;;;;;;5079334;28;20024;-76
2023/03/04 05:39:55;;;;;;;68.70;27.88;;;;;;;;;;5079558;28;20039;-76
2023/03/04 05:42:20;;;;;;;77.20;28.70;;;;;;;;;;5097161;28;20081;-75
2023/03/04 05:44:46;;;;;;;71.18;28.05;;;;;;;;;;5079049;28;20085;-75
2023/03/04 05:47:11;;;;;;;66.03;25.67;;;;;;;;;;5053182;28;20016;-76
2023/03/04 05:49:37;;;;;;;69.28;26.23;;;;;;;;;;5095623;28;20028;-76
2023/03/04 05:52:02;;;;;;;62.92;25.50;;;;;;;;;;5096748;28;20394;-76
2023/03/04 05:54:27;;;;;;;60.53;23.98;;;;;;;;;;5095596;28;20097;-76
2023/03/04 05:56:53;;;;;;;68.35;27.65;;;;;;;;;;5096640;28;20028;-76
2023/03/04 05:59:19;;;;;;;64.30;27.10;;;;;;;;;;5096921;28;20042;-75
2023/03/04 06:01:45;;;;;;;78.18;30.08;;;;;;;;;;5061496;28;20473;-75
2023/03/04 06:04:11;;;;;;;66.82;26.95;;;;;;;;;;5078469;28;20077;-76
2023/03/04 06:06:36;;;;;;;73.57;25.45;;;;;;;;;;5077968;28;20028;-75
2023/03/04 06:09:02;;;;;;;69.65;26.08;;;;;;;;;;5078376;28;20171;-76
2023/03/04 06:11:27;;;;;;;66.63;25.13;;;;;;;;;;5078325;28;20441;-75
2023/03/04 06:13:53;;;;;;;71.13;27.30;;;;;;;;;;5096275;28;20105;-76
2023/03/04 06:16:18;;;;;;;69.72;26.30;;;;;;;;;;5096697;28;20038;-75
2023/03/04 06:18:44;;;;;;;68.15;26.40;;;;;;;;;;5078402;28;20036;-75
2023/03/04 06:21:09;;;;;;;61.88;27.75;;;;;;;;;;5096427;28;20032;-75
2023/03/04 06:23:34;;;;;;;67.38;27.60;;;;;;;;;;5096759;28;20032;-76
2023/03/04 06:26:00;;;;;;;74.13;29.40;;;;;;;;;;5096173;28;20036;-76
2023/03/04 06:28:26;;;;;;;85.20;32.20;;;;;;;;;;5096500;28;20063;-76
2023/03/04 06:30:52;;;;;;;71.68;30.08;;;;;;;;;;5078268;28;20031;-76
2023/03/04 06:33:18;;;;;;;78.55;30.45;;;;;;;;;;5095173;28;20034;-76
2023/03/04 06:35:43;;;;;;;66.05;27.60;;;;;;;;;;5094804;28;20070;-76
2023/03/04 06:38:09;;;;;;;80.90;30.00;;;;;;;;;;5096501;28;20141;-75
2023/03/04 06:40:34;;;;;;;80.65;30.70;;;;;;;;;;5077856;28;20028;-76
2023/03/04 06:43:00;;;;;;;89.47;33.30;;;;;;;;;;5078095;28;20081;-77
2023/03/04 06:45:25;;;;;;;74.65;29.23;;;;;;;;;;5096358;28;20081;-76
2023/03/04 06:47:50;;;;;;;74.22;27.80;;;;;;;;;;5078056;28;20024;-76
2023/03/04 06:50:16;;;;;;;70.30;28.08;;;;;;;;;;5077849;28;20036;-76
2023/03/04 06:52:41;;;;;;;82.13;32.08;;;;;;;;;;5106951;28;20032;-76
2023/03/04 06:55:07;;;;;;;81.60;32.38;;;;;;;;;;5098826;28;20150;-77
2023/03/04 06:57:33;;;;;;;81.68;32.42;;;;;;;;;;5098420;28;20055;-74
2023/03/04 06:59:58;;;;;;;71.72;27.77;;;;;;;;;;5096051;28;20397;-74
2023/03/04 07:02:24;;;;;;;68.90;28.75;;;;;;;;;;5077547;28;20020;-74
2023/03/04 07:04:49;;;;;;;67.80;28.65;;;;;;;;;;5077488;28;20089;-74
2023/03/04 07:07:15;;;;;;;72.85;30.35;;;;;;;;;;5095550;28;20028;-75
2023/03/04 07:09:40;;;;;;;69.95;28.90;;;;;;;;;;5077228;28;20063;-76
2023/03/04 07:12:06;;;;;;;60.75;26.55;;;;;;;;;;5095492;28;20051;-75
2023/03/04 07:14:31;;;;;;;53.97;24.10;;;;;;;;;;5094198;28;20019;-76
2023/03/04 07:16:56;;;;;;;58.40;25.67;;;;;;;;;;5079804;28;20444;-75
2023/03/04 07:19:22;;;;;;;53.85;24.10;;;;;;;;;;5057084;28;20217;-75
2023/03/04 07:21:47;;;;;;;52.28;23.15;;;;;;;;;;5056941;28;20068;-75
2023/03/04 07:24:13;;;;;;;51.63;23.30;;;;;;;;;;5056761;28;20025;-75
2023/03/04 07:26:38;;;;;;;53.83;24.27;;;;;;;;;;5057048;28;20339;-76
2023/03/04 07:29:04;;;;;;;47.20;23.52;;;;;;;;;;5074867;28;20115;-76
2023/03/04 07:31:31;;;;;;;49.35;24.17;;;;;;;;;;5056947;28;20423;-75
2023/03/04 07:33:58;;;;;;;54.10;24.60;;;;;;;;;;5074421;28;20169;-75
2023/03/04 07:36:24;;;;;;;49.78;24.58;;;;;;;;;;5040138;28;20443;-76
2023/03/04 07:38:49;;;;;;;57.60;25.23;;;;;;;;;;5056791;28;20031;-75
2023/03/04 07:41:15;;;;;;;50.25;25.05;;;;;;;;;;5056700;28;20115;-76
2023/03/04 07:43:41;;;;;;;55.17;26.88;;;;;;;;;;5040000;28;20081;-75
2023/03/04 07:46:06;;;;;;;53.88;25.67;;;;;;;;;;5074468;28;20032;-75
2023/03/04 07:48:32;;;;;;;56.90;29.40;;;;;;;;;;5040267;28;20037;-76
2023/03/04 07:51:07;;;;;;;65.00;34.00;;;;;;;;;;5057099;28;20041;-75
2023/03/04 07:53:33;;;;;;;51.30;26.20;;;;;;;;;;5056883;28;20044;-76
2023/03/04 07:55:58;;;;;;;54.20;26.92;;;;;;;;;;5075601;28;20028;-75
2023/03/04 07:58:24;;;;;;;53.67;27.00;;;;;;;;;;5058051;28;20029;-76
2023/03/04 08:00:49;;;;;;;53.97;26.98;;;;;;;;;;5057000;28;20086;-75
2023/03/04 08:03:15;;;;;;;56.15;25.98;;;;;;;;;;5074166;28;20461;-75
2023/03/04 08:05:40;;;;;;;60.92;27.02;;;;;;;;;;5056076;28;20123;-75
2023/03/04 08:08:06;;;;;;;49.25;25.85;;;;;;;;;;5056215;28;20123;-76
2023/03/04 08:10:31;;;;;;;48.03;23.80;;;;;;;;;;5039956;28;20077;-75
2023/03/04 08:12:56;;;;;;;51.17;23.05;;;;;;;;;;5074303;28;20031;-75
2023/03/04 08:15:26;;;;;;;45.50;21.70;;;;;;;;;;5040380;28;20049;-76
2023/03/04 08:17:51;;;;;;;42.55;22.33;;;;;;;;;;5089978;28;20028;-75
2023/03/04 08:20:17;;;;;;;48.70;23.70;;;;;;;;;;5074590;28;20039;-76
2023/03/04 08:22:42;;;;;;;47.05;23.67;;;;;;;;;;5059641;28;20442;-75
2023/03/04 08:25:08;;;;;;;45.95;22.58;;;;;;;;;;5094023;28;20034;-76
2023/03/04 08:27:33;;;;;;;46.55;25.05;;;;;;;;;;5093978;28;20034;-74
2023/03/04 08:29:59;;;;;;;47.00;22.50;;;;;;;;;;5092459;28;20089;-76
2023/03/04 08:32:24;;;;;;;47.38;23.27;;;;;;;;;;5075871;28;20024;-75
2023/03/04 08:34:50;;;;;;;64.53;30.60;;;;;;;;;;5075449;28;20044;-75
2023/03/04 08:37:15;;;;;;;55.17;26.92;;;;;;;;;;5075900;28;20075;-75
2023/03/04 08:39:41;;;;;;;47.33;24.02;;;;;;;;;;5093956;28;20032;-76
2023/03/04 08:42:06;;;;;;;57.63;24.55;;;;;;;;;;5075845;28;20437;-75
2023/03/04 08:44:31;;;;;;;47.80;21.85;;;;;;;;;;5075793;28;20359;-75
2023/03/04 08:46:57;;;;;;;48.20;22.65;;;;;;;;;;5081967;28;20039;-75
2023/03/04 08:49:22;;;;;;;55.75;26.00;;;;;;;;;;5093485;28;20036;-75
2023/03/04 08:51:48;;;;;;;55.25;24.58;;;;;;;;;;5059068;28;20388;-75
2023/03/04 08:54:13;;;;;;;54.03;25.50;;;;;;;;;;5093616;28;20445;-75
2023/03/04 08:56:40;;;;;;;49.78;23.10;;;;;;;;;;5075671;28;20059;-75
2023/03/04 08:59:05;;;;;;;56.33;24.48;;;;;;;;;;5075586;28;20043;-76
2023/03/04 09:01:30;;;;;;;52.53;23.48;;;;;;;;;;5093638;28;20060;-75
2023/03/04 09:03:56;;;;;;;50.30;22.75;;;;;;;;;;5093167;28;20028;-75
2023/03/04 09:06:21;;;;;;;55.53;22.90;;;;;;;;;;5092666;28;20035;-75
2023/03/04 09:08:47;;;;;;;61.13;24.30;;;;;;;;;;5075316;28;20055;-71
2023/03/04 09:11:13;;;;;;;77.25;32.15;;;;;;;;;;5071416;28;20035;-76
2023/03/04 09:13:38;;;;;;;53.15;23.35;;;;;;;;;;5071678;28;20025;-76
2023/03/04 09:16:08;;;;;;;54.33;25.67;;;;;;;;;;5090075;28;20430;-76
2023/03/04 09:18:34;;;;;;;66.45;35.45;;;;;;;;;;5074881;28;20028;-76
2023/03/04 09:20:59;;;;;;;59.38;25.52;;;;;;;;;;5075765;28;20354;-76
2023/03/04 09:23:25;;;;;;;53.97;25.15;;;;;;;;;;5093486;28;20457;-76
2023/03/04 09:25:50;;;;;;;61.17;25.13;;;;;;;;;;5074576;28;20431;-75
2023/03/04 09:28:16;;;;;;;59.72;26.85;;;;;;;;;;5074253;28;20494;-76
2023/03/04 09:30:42;;;;;;;54.97;24.17;;;;;;;;;;5090463;28;20024;-75
2023/03/04 09:33:07;;;;;;;70.93;29.60;;;;;;;;;;5073617;28;20523;-75
2023/03/04 09:35:33;;;;;;;64.07;26.05;;;;;;;;;;5074058;28;20036;-76
2023/03/04 09:37:58;;;;;;;64.13;26.63;;;;;;;;;;5073908;28;20115;-75
2023/03/04 09:40:27;;;;;;;56.80;24.23;;;;;;;;;;5074530;28;20027;-76
2023/03/04 09:42:54;;;;;;;66.88;26.92;;;;;;;;;;5062278;28;20039;-76
2023/03/04 09:45:21;;;;;;;66.07;26.23;;;;;;;;;;5079476;28;20423;-75
2023/03/04 09:47:51;;;;;;;65.05;27.15;;;;;;;;;;5062327;28;20081;-75
2023/03/04 09:50:16;;;;;;;59.80;25.55;;;;;;;;;;5078981;28;20032;-75
2023/03/04 09:53:00;;;;;;;68.10;25.65;;;;;;;;;;5078947;28;20655;-76
2023/03/04 09:55:48;;;;;;;66.25;22.63;;;;;;;;;;5079033;28;20438;-76
2023/03/04 09:58:48;;;;;;;55.33;23.40;;;;;;;;;;5064658;28;20119;-76
2023/03/04 10:01:27;;;;;;;70.07;27.38;;;;;;;;;;5075932;28;20096;-76
2023/03/04 10:03:57;;;;;;;94.38;46.03;;;;;;;;;;5079177;28;20118;-75
2023/03/04 10:06:22;;;;;;;68.40;30.23;;;;;;;;;;5079306;28;20994;-76
2023/03/04 10:09:04;;;;;;;63.30;25.52;;;;;;;;;;5061848;28;20028;-76
2023/03/04 10:11:43;;;;;;;64.93;22.95;;;;;;;;;;5078620;28;20032;-76
2023/03/04 10:14:20;;;;;;;67.82;26.50;;;;;;;;;;5078687;28;20089;-75
2023/03/04 10:17:02;;;;;;;55.80;23.13;;;;;;;;;;5091431;28;20509;-75
2023/03/04 10:19:55;;;;;;;69.05;24.67;;;;;;;;;;5049208;28;20327;-76
2023/03/04 10:22:36;;;;;;;59.40;23.60;;;;;;;;;;5058069;28;20131;-75
2023/03/04 10:25:23;;;;;;;71.00;23.40;;;;;;;;;;5076124;28;20047;-75
2023/03/04 10:27:58;;;;;;;61.08;23.60;;;;;;;;;;5041266;28;20047;-76
2023/03/04 10:30:55;;;;;;;63.03;24.48;;;;;;;;;;5057749;28;20028;-75
2023/03/04 10:33:33;;;;;;;63.40;24.42;;;;;;;;;;5057993;28;20430;-76
2023/03/04 10:36:12;;;;;;;63.63;23.83;;;;;;;;;;5074543;28;20040;-75
2023/03/04 10:38:38;;;;;;;59.85;22.92;;;;;;;;;;5058015;28;20054;-77
2023/03/04 10:41:15;;;;;;;231.38;88.43;;;;;;;;;;5058088;28;20024;-75
2023/03/04 10:43:44;;;;;;;52.40;21.63;;;;;;;;;;5058255;28;20031;-75
2023/03/04 10:46:10;;;;;;;77.72;34.38;;;;;;;;;;5058037;28;20048;-76
2023/03/04 10:48:36;;;;;;;62.88;27.58;;;;;;;;;;5057823;28;20373;-76
2023/03/04 10:51:22;;;;;;;63.92;26.50;;;;;;;;;;5057932;28;20028;-75
2023/03/04 10:53:49;;;;;;;66.18;24.02;;;;;;;;;;5041130;28;20057;-76
2023/03/04 10:56:38;;;;;;;59.15;22.10;;;;;;;;;;5074475;28;20029;-76
2023/03/04 10:59:28;;;;;;;65.93;24.15;;;;;;;;;;5058430;28;20400;-76
2023/03/04 11:01:54;;;;;;;72.47;27.10;;;;;;;;;;5075621;28;20062;-76
2023/03/04 11:04:22;;;;;;;61.08;23.65;;;;;;;;;;5040997;28;20111;-76
2023/03/04 11:06:47;;;;;;;62.15;23.80;;;;;;;;;;5057884;28;20040;-77
2023/03/04 11:09:27;;;;;;;60.22;21.60;;;;;;;;;;5057342;28;20520;-76
2023/03/04 11:11:54;;;;;;;70.35;24.65;;;;;;;;;;5057652;28;20056;-77
2023/03/04 11:14:28;;;;;;;61.50;23.70;;;;;;;;;;5040625;28;20076;-76
2023/03/04 11:16:55;;;;;;;61.72;21.92;;;;;;;;;;5046684;28;20493;-76
2023/03/04 11:19:21;;;;;;;58.85;23.40;;;;;;;;;;5077819;28;20028;-77
2023/03/04 11:21:47;;;;;;;67.53;25.88;;;;;;;;;;5041130;28;20033;-76
2023/03/04 11:24:24;;;;;;;80.30;28.23;;;;;;;;;;5057196;28;20462;-76
2023/03/04 11:27:14;;;;;;;80.22;25.67;;;;;;;;;;5073738;28;20024;-77
2023/03/04 11:29:58;;;;;;;;;;;;;;;;;;5059377;28;20044;-76
2023/03/04 11:32:27;;;;;;;65.85;24.80;;;;;;;;;;5074955;28;19913;-76
2023/03/04 11:35:00;;;;;;;73.10;24.55;;;;;;;;;;5040382;28;20040;-77
2023/03/04 11:37:43;;;;;;;69.70;23.17;;;;;;;;;;5057005;28;20125;-76
2023/03/04 11:40:15;;;;;;;70.00;25.30;;;;;;;;;;5042399;28;20028;-75
2023/03/04 11:42:45;;;;;;;71.60;25.98;;;;;;;;;;5024121;28;20033;-76
2023/03/04 11:45:15;;;;;;;72.65;26.48;;;;;;;;;;5040472;28;20028;-76
2023/03/04 11:47:43;;;;;;;75.30;25.85;;;;;;;;;;5040693;28;20044;-75
2023/03/04 11:50:27;;;;;;;93.57;31.08;;;;;;;;;;5056532;28;20119;-75
2023/03/04 11:53:30;;;;;;;77.95;26.98;;;;;;;;;;5058435;28;20109;-77
2023/03/04 11:56:10;;;;;;;83.80;25.92;;;;;;;;;;5074550;28;20029;-75
2023/03/04 11:58:47;;;;;;;77.85;25.77;;;;;;;;;;5041356;28;20032;-76
2023/03/04 12:01:30;;;;;;;80.18;23.75;;;;;;;;;;5056900;28;20402;-76
2023/03/04 12:04:17;;;;;;;75.13;24.75;;;;;;;;;;5040134;28;20035;-76
2023/03/04 12:07:01;;;;;;;79.43;25.52;;;;;;;;;;5056725;28;20021;-76
2023/03/04 12:09:38;;;;;;;74.97;23.65;;;;;;;;;;5074202;28;20126;-76
2023/03/04 12:12:15;;;;;;;91.18;26.92;;;;;;;;;;5074067;28;20369;-76
2023/03/04 12:14:43;;;;;;;84.25;27.77;;;;;;;;;;5074283;28;20039;-76
2023/03/04 12:17:54;;;;;;;90.38;28.42;;;;;;;;;;5074472;28;20036;-76
2023/03/04 12:20:42;;;;;;;78.13;23.40;;;;;;;;;;5043230;28;20036;-76
2023/03/04 12:23:29;;;;;;;78.35;24.17;;;;;;;;;;5070414;28;20028;-77
2023/03/04 12:25:54;;;;;;;65.90;21.58;;;;;;;;;;5056200;28;20512;-76
2023/03/04 12:28:35;;;;;;;64.95;21.58;;;;;;;;;;5073817;28;20029;-75
2023/03/04 12:31:12;;;;;;;74.97;23.05;;;;;;;;;;5074021;28;20025;-76
2023/03/04 12:33:47;;;;;;;75.55;25.40;;;;;;;;;;5074236;28;20028;-76
2023/03/04 12:36:34;;;;;;;85.07;27.58;;;;;;;;;;5074609;28;20044;-76
2023/03/04 12:39:18;;;;;;;88.50;27.20;;;;;;;;;;5092996;28;20027;-75
2023/03/04 12:42:02;;;;;;;83.57;24.90;;;;;;;;;;5075750;28;20028;-76
2023/03/04 12:44:30;;;;;;;84.85;26.27;;;;;;;;;;5093897;28;20020;-77
2023/03/04 12:47:23;;;;;;;90.72;25.05;;;;;;;;;;5076006;28;20116;-76
2023/03/04 12:50:10;;;;;;;74.78;23.40;;;;;;;;;;5059222;28;20043;-76
2023/03/04 12:52:54;;;;;;;85.80;27.67;;;;;;;;;;5075988;28;20084;-76
2023/03/04 12:55:24;;;;;;;82.68;26.48;;;;;;;;;;5093978;28;20119;-76
2023/03/04 12:57:49;;;;;;;92.13;29.83;;;;;;;;;;5059650;28;20111;-76
2023/03/04 13:00:30;;;;;;;105.72;29.45;;;;;;;;;;5059157;28;20125;-76
2023/03/04 13:03:02;;;;;;;98.82;28.67;;;;;;;;;;5093063;28;20092;-77
2023/03/04 13:06:01;;;;;;;97.25;29.15;;;;;;;;;;5076095;28;20057;-77
2023/03/04 13:08:51;;;;;;;88.07;27.50;;;;;;;;;;5079295;28;20035;-76
2023/03/04 13:11:25;;;;;;;66.53;19.10;;;;;;;;;;5094358;28;20074;-76
2023/03/04 13:14:16;;;;;;;100.40;31.77;;;;;;;;;;5075976;28;20032;-76
2023/03/04 13:16:44;;;;;;;78.55;24.95;;;;;;;;;;5086462;28;20036;-75
2023/03/04 13:19:57;;;;;;;84.32;24.60;;;;;;;;;;5079856;28;20039;-76
2023/03/04 13:22:46;;;;;;;78.53;24.45;;;;;;;;;;4982858;28;20042;-75
2023/03/04 13:25:30;;;;;;;76.07;22.92;;;;;;;;;;4981149;28;20033;-76
2023/03/04 13:28:01;;;;;;;75.13;22.10;;;;;;;;;;5064913;28;20041;-76
2023/03/04 13:30:30;;;;;;;67.05;21.20;;;;;;;;;;5077470;28;20036;-76
2023/03/04 13:32:57;;;;;;;59.00;19.83;;;;;;;;;;5077105;28;20042;-76
2023/03/04 13:35:48;;;;;;;73.88;20.85;;;;;;;;;;5075725;28;20438;-76
2023/03/04 13:38:33;;;;;;;70.43;21.77;;;;;;;;;;5077008;28;20086;-77
2023/03/04 13:41:20;;;;;;;75.82;21.95;;;;;;;;;;5076678;28;20028;-76
2023/03/04 13:43:55;;;;;;;79.82;22.50;;;;;;;;;;5076864;28;20056;-76
2023/03/04 13:46:25;;;;;;;80.18;23.45;;;;;;;;;;5042876;28;20048;-76
2023/03/04 13:48:51;;;;;;;62.50;21.38;;;;;;;;;;5076929;28;20051;-76
2023/03/04 13:51:22;;;;;;;68.18;21.40;;;;;;;;;;5076862;28;20455;-75
2023/03/04 13:53:56;;;;;;;75.72;23.35;;;;;;;;;;5076489;28;20044;-77
2023/03/04 13:56:33;;;;;;;77.88;24.08;;;;;;;;;;5076709;28;20025;-76
2023/03/04 13:59:07;;;;;;;80.88;23.60;;;;;;;;;;5076752;28;20028;-76
2023/03/04 14:01:42;;;;;;;80.47;24.58;;;;;;;;;;5076768;28;20116;-76
2023/03/04 14:04:32;;;;;;;88.45;27.73;;;;;;;;;;5076663;28;20024;-77
2023/03/04 14:06:58;;;;;;;;;;;;;;;;;;5052271;28;20072;-76
2023/03/04 14:09:23;;;;;;;98.10;27.15;;;;;;;;;;5058471;28;20325;-76
2023/03/04 14:11:50;;;;;;;111.72;28.75;;;;;;;;;;5058871;28;20028;-76
2023/03/04 14:14:54;;;;;;;95.47;27.55;;;;;;;;;;5042046;28;20032;-76
2023/03/04 14:17:21;;;;;;;91.57;27.27;;;;;;;;;;5013419;28;20373;-75
2023/03/04 14:19:47;;;;;;;86.75;26.77;;;;;;;;;;5025536;28;20040;-76
2023/03/04 14:22:26;;;;;;;99.18;29.70;;;;;;;;;;5041853;28;20037;-75
2023/03/04 14:24:58;;;;;;;79.55;23.98;;;;;;;;;;5076335;28;20024;-76
2023/03/04 14:27:24;;;;;;;80.65;24.23;;;;;;;;;;5070109;28;20031;-75
2023/03/04 14:29:56;;;;;;;90.30;27.33;;;;;;;;;;5078098;28;20040;-76
2023/03/04 14:32:22;;;;;;;101.40;32.08;;;;;;;;;;5078560;28;20028;-76